• Join FlightAware (Why Join?)
  • Login
  • US Flag 
06:03PM EDT


 

Airport Tracker/Info


-or-


 

Live Flight TrackerFlight Track Log ✈ CSN3233 ✈ 14-Mar-2014 ✈ ZGKL / KWL - ZGGG / CAN

Flight Track Log - Related Links

Times and Time Zones

All times are in EDT time to prevent confusion due to time zone crossing. See the CSN3233 flight status page for this flight to view local times or setup timezone preferences in your user account.

Time Position Orientation Groundspeed Altitude Reporting Facility
EDT Latitude Longitude Course Direction KTS MPH feet Rate Location/Type
08:55AM 25.0096 110.4228 121° Southeast  Level Estimated
08:56AM 24.9678 110.4994 121° Southeast  Level Estimated
08:57AM 24.9259 110.5759 121° Southeast  Level Estimated
08:58AM 24.8840 110.6524 121° Southeast  Level Estimated
08:59AM 24.8421 110.7288 121° Southeast  Level Estimated
09:00AM 24.8001 110.8052 121° Southeast  Level Estimated
09:01AM 24.7581 110.8815 121° Southeast  Level Estimated
09:02AM 24.7160 110.9577 121° Southeast  Level Estimated
09:03AM 24.6739 111.0340 121° Southeast  Level Estimated
09:04AM 24.6318 111.1101 121° Southeast  Level Estimated
09:05AM 24.5896 111.1862 121° Southeast  Level Estimated
09:06AM 24.5474 111.2623 121° Southeast  Level Estimated
09:07AM 24.5051 111.3383 121° Southeast  Level Estimated
09:08AM 24.4629 111.4142 121° Southeast  Level Estimated
09:09AM 24.4205 111.4901 121° Southeast  Level Estimated
09:10AM 24.3782 111.5660 122° Southeast  Level Estimated
09:11AM 24.3358 111.6418 122° Southeast  Level Estimated
09:12AM 24.2934 111.7175 122° Southeast  Level Estimated
09:13AM 24.2509 111.7932 122° Southeast  Level Estimated
09:14AM 24.2084 111.8689 122° Southeast  Level Estimated
09:15AM 24.1658 111.9445 122° Southeast  Level Estimated
09:16AM 24.1232 112.0200 122° Southeast  Level Estimated
09:17AM 24.0806 112.0955 122° Southeast  Level Estimated
09:18AM 24.0379 112.1709 122° Southeast  Level Estimated
09:19AM 23.9953 112.2463 122° Southeast  Level Estimated
09:20AM 23.9525 112.3217 122° Southeast  Level Estimated
09:21AM 23.9097 112.3970 122° Southeast  Level Estimated
09:22AM 23.8669 112.4722 122° Southeast  Level Estimated
09:23AM 23.8241 112.5474 122° Southeast  Level Estimated
09:24AM 23.7812 112.6226 122° Southeast  Level Estimated
09:25AM 23.7383 112.6977 122° Southeast  Level Estimated
09:26AM 23.6953 112.7727 122° Southeast  Level Estimated
09:27AM 23.6523 112.8477 122° Southeast  Level Estimated
09:28AM 23.6093 112.9227 122° Southeast  Level Estimated
09:29AM 23.5663 112.9976 122° Southeast  Level Estimated
09:30AM 23.5232 113.0724 122° Southeast  Level Estimated
09:31AM 23.4800 113.1472 122° Southeast  Level Estimated
09:32AM 23.4369 113.2220 122° Southeast  Level Estimated
09:33AM 23.3937 113.2967 122° Southeast  Level Estimated
09:34AM 23.3924 113.2988 122° Southeast  Level Estimated
09:35AM 23.3924 113.2988 North  Level Estimated
09:36AM 23.3924 113.2988 North  Level Estimated
09:37AM 23.3924 113.2988 North  Level Estimated
09:38AM 23.3924 113.2988 North  Level Estimated
09:39AM 23.3924 113.2988 North  Level Estimated
09:40AM 23.3924 113.2988 North  Level Estimated
09:41AM 23.3924 113.2988 North  Level Estimated
09:42AM 23.3924 113.2988 North  Level Estimated
09:43AM 23.3924 113.2988 North  Level Estimated
09:44AM 23.3924 113.2988 North  Level Estimated